Strand, South Africa
Current Conditions -  °F | °C
As of 11:00 AM on Friday 24 Oct 2014 (Local Time) from FACT Reporting Station
Few Clouds Few Clouds  
Wind Chill: 75°   Ceiling: Unl
Heat Index: 75°   Visibility: 6mi
Dew Point: 55°   Wind: 23mph
Humidity: 50%   Direction: 170°S
Pressure: 30.03"   Gusts: NA
Location:  34.1°S, 18.82°E
Report Text: FACT 240900Z 17020KT 9999 FEW020 24/13 Q1017 NOSIG
Loading
Personal Weather Stations






























Interactive Weather Map
Tropical Storm Tracking
New forecast layout! Learn more

10-Day Weather Forecast

Advertisements
Track Severe Weather on mobile